Station Historical Data
 
Daily Summary for June 18, 2019 Units:  English    Metric   Both
« Previous Day
Next Day »
Daily Weekly Monthly Yearly Custom
  Current: High: Low: Average:
Temperature: 63.9 °F 72.1 °F 63 °F 67.6 °F
Dew Point: 54.7 °F 59.4 °F 50.2 °F 54.9 °F
Humidity: 72% 82% 46% 65%
Wind Speed: 1mph 6mph 0mph 1.7mph
Wind Gust: 2mph 15mph - -
WindNW - - SW
Pressure: 29.9 in 29.9 in 29.9 in -
Precipitation: 0 in      
Historical Graphs
 
 
Tabular Data for June 18, 2019
Time Temperature Dew Point Pressure Wind Wind Speed Wind Gust Humidity Rainfall Rate (Hourly) solar Conditions
00:00 71.8 °F 55.6 °F 29.9 in SSW 5 mph 14 mph 57% 0 in 0.00 W/m2 CLR
00:05 71.6 °F 55 °F 29.9 in South 5 mph 15 mph 56% 0 in 0.00 W/m2 CLR
00:10 71.4 °F 55 °F 29.9 in South 6 mph 13 mph 56% 0 in 0.00 W/m2 CLR
00:15 71.4 °F 55.6 °F 29.9 in South 5 mph 12 mph 57% 0 in 0.00 W/m2 CLR
00:20 71.4 °F 55.4 °F 29.9 in South 5 mph 12 mph 57% 0 in 0.00 W/m2 CLR
00:25 71.2 °F 55.2 °F 29.9 in South 5 mph 14 mph 57% 0 in 0.00 W/m2 CLR
00:30 71.2 °F 54.9 °F 29.9 in SSW 5 mph 12 mph 56% 0 in 0.00 W/m2 CLR
00:35 71.4 °F 54.3 °F 29.9 in SSW 3 mph 10 mph 55% 0 in 0.00 W/m2 CLR
00:40 71.4 °F 54 °F 29.9 in SSW 3 mph 10 mph 54% 0 in 0.00 W/m2 CLR
00:45 71.4 °F 53.4 °F 29.9 in South 3 mph 9 mph 53% 0 in 0.00 W/m2 CLR
00:50 71.4 °F 53.4 °F 29.9 in SSW 5 mph 10 mph 53% 0 in 0.00 W/m2 CLR
00:55 71.6 °F 52.5 °F 29.9 in SSW 2 mph 9 mph 51% 0 in 0.00 W/m2 CLR
01:00 71.8 °F 52.7 °F 29.9 in SSW 2 mph 7 mph 51% 0 in 0.00 W/m2 CLR
01:05 72 °F 52.2 °F 29.9 in SW 2 mph 6 mph 50% 0 in 0.00 W/m2 CLR
01:10 72 °F 51.3 °F 29.9 in SW 2 mph 9 mph 48% 0 in 0.00 W/m2 CLR
01:15 72.1 °F 51.3 °F 29.9 in SW 1 mph 5 mph 48% 0 in 0.00 W/m2 CLR
01:20 72.1 °F 51.3 °F 29.9 in SSW 2 mph 5 mph 48% 0 in 0.00 W/m2 CLR
01:25 72 °F 51.8 °F 29.9 in SSW 1 mph 3 mph 49% 0 in 0.00 W/m2 CLR
01:30 72 °F 51.1 °F 29.9 in SW 1 mph 6 mph 48% 0 in 0.00 W/m2 CLR
01:35 72 °F 50.5 °F 29.9 in SSW 2 mph 7 mph 47% 0 in 0.00 W/m2 CLR
01:40 72.1 °F 50.2 °F 29.9 in South 2 mph 7 mph 46% 0 in 0.00 W/m2 CLR
01:45 72.1 °F 50.2 °F 29.9 in South 2 mph 5 mph 46% 0 in 0.00 W/m2 CLR
01:50 72.1 °F 50.7 °F 29.9 in South 5 mph 7 mph 47% 0 in 0.00 W/m2 CLR
01:55 72 °F 50.7 °F 29.9 in South 2 mph 7 mph 47% 0 in 0.00 W/m2 CLR
02:00 71.8 °F 51.1 °F 29.9 in South 3 mph 7 mph 48% 0 in 0.00 W/m2 CLR
02:05 71.6 °F 52 °F 29.9 in SSE 2 mph 6 mph 50% 0 in 0.00 W/m2 CLR
02:10 71.4 °F 52.9 °F 29.9 in ESE 2 mph 4 mph 52% 0 in 0.00 W/m2 CLR
02:15 71.1 °F 54.1 °F 29.9 in East 2 mph 4 mph 55% 0 in 0.00 W/m2 CLR
02:20 70.5 °F 55 °F 29.9 in East 2 mph 5 mph 58% 0 in 0.00 W/m2 CLR
02:25 70.2 °F 55 °F 29.9 in SE 2 mph 4 mph 59% 0 in 0.00 W/m2 CLR
02:30 69.8 °F 55.2 °F 29.9 in SE 3 mph 5 mph 60% 0 in 0.00 W/m2 CLR
02:35 69.4 °F 55.6 °F 29.9 in SE 2 mph 6 mph 61% 0 in 0.00 W/m2 CLR
02:40 69.3 °F 55.6 °F 29.9 in SE 2 mph 4 mph 62% 0 in 0.00 W/m2 CLR
02:45 68.9 °F 55.8 °F 29.9 in SE 2 mph 4 mph 63% 0 in 0.00 W/m2 CLR
02:50 68.5 °F 55.9 °F 29.9 in ESE 1 mph 4 mph 64% 0 in 0.00 W/m2 CLR
02:55 68.4 °F 55.8 °F 29.9 in ESE 1 mph 3 mph 64% 0 in 0.00 W/m2 CLR
03:00 68.2 °F 55.9 °F 29.9 in ESE 1 mph 2 mph 65% 0 in 0.00 W/m2 CLR
03:05 68.2 °F 55.9 °F 29.9 in Calm   2 mph 65% 0 in 0.00 W/m2 CLR
03:10 68 °F 55.8 °F 29.9 in ESE 1 mph 2 mph 65% 0 in 0.00 W/m2 CLR
03:15 67.8 °F 56.1 °F 29.9 in ESE 1 mph 2 mph 66% 0 in 0.00 W/m2 CLR
03:20 67.6 °F 55.9 °F 29.9 in ESE 1 mph 2 mph 66% 0 in 0.00 W/m2 CLR
03:25 67.5 °F 55.8 °F 29.9 in ESE 1 mph 2 mph 66% 0 in 0.00 W/m2 CLR
03:30 67.3 °F 55.6 °F 29.9 in ESE 1 mph 2 mph 66% 0 in 0.00 W/m2 CLR
03:35 67.1 °F 55.4 °F 29.9 in Calm   2 mph 66% 0 in 0.00 W/m2 CLR
03:40 66.9 °F 55 °F 29.9 in Calm     66% 0 in 0.00 W/m2 CLR
03:45 66.6 °F 55.2 °F 29.9 in Calm   2 mph 67% 0 in 0.00 W/m2 CLR
03:50 66.4 °F 55.6 °F 29.9 in ESE 2 mph 3 mph 68% 0 in 0.00 W/m2 CLR
03:55 66.4 °F 55.8 °F 29.9 in ESE 1 mph 3 mph 69% 0 in 0.00 W/m2 CLR
04:00 66 °F 55.6 °F 29.9 in ESE 1 mph 2 mph 69% 0 in 0.00 W/m2 CLR
04:05 66 °F 55.9 °F 29.9 in ESE 1 mph 3 mph 70% 0 in 0.00 W/m2 CLR
04:10 65.8 °F 55.8 °F 29.9 in ESE 1 mph 2 mph 70% 0 in 0.00 W/m2 CLR
04:15 65.8 °F 55.8 °F 29.9 in Calm   2 mph 70% 0 in 0.00 W/m2 CLR
04:20 65.7 °F 55.6 °F 29.9 in Calm   1 mph 70% 0 in 0.00 W/m2 CLR
04:25 65.5 °F 55.8 °F 29.9 in Calm   1 mph 71% 0 in 0.00 W/m2 CLR
04:30 65.5 °F 55.8 °F 29.9 in Calm   2 mph 71% 0 in 0.00 W/m2 CLR
04:35 65.1 °F 55.6 °F 29.9 in East 1 mph 3 mph 71% 0 in 0.00 W/m2 CLR
04:40 64.9 °F 55.4 °F 29.9 in NW 1 mph 2 mph 71% 0 in 0.00 W/m2 CLR
04:45 64.9 °F 55.2 °F 29.9 in NW 1 mph 2 mph 71% 0 in 0.00 W/m2 CLR
04:50 64.8 °F 54.7 °F 29.9 in Calm   2 mph 70% 0 in 0.00 W/m2 CLR
04:55 64.6 °F 54.5 °F 29.9 in NW 1 mph 2 mph 70% 0 in 0.00 W/m2 CLR
05:00 64.4 °F 54.3 °F 29.9 in NW 1 mph 2 mph 70% 0 in 0.00 W/m2 CLR
05:05 64.4 °F 54.3 °F 29.9 in Calm   2 mph 70% 0 in 0.00 W/m2 CLR
05:10 64.2 °F 54.7 °F 29.9 in NW 1 mph 3 mph 71% 0 in 0.00 W/m2 CLR
05:15 64.4 °F 55.2 °F 29.9 in NW 2 mph 3 mph 72% 0 in 0.00 W/m2 CLR
05:20 64.4 °F 55.2 °F 29.9 in NNW 2 mph 3 mph 72% 0 in 0.00 W/m2 CLR
05:25 64.4 °F 55.2 °F 29.9 in NNW 2 mph 4 mph 72% 0 in 0.00 W/m2 CLR
05:30 64.8 °F 56.7 °F 29.9 in NNW 1 mph 4 mph 75% 0 in 0.00 W/m2 CLR
05:35 64.9 °F 57.2 °F 29.9 in NNW 1 mph 3 mph 76% 0 in 0.00 W/m2 CLR
05:40 64.9 °F 57.6 °F 29.9 in NNW 3 mph 6 mph 77% 0 in 0.00 W/m2 CLR
05:45 64.9 °F 57.9 °F 29.9 in NNW 1 mph 8 mph 78% 0 in 0.00 W/m2 CLR
05:50 64.9 °F 58.3 °F 29.9 in NNW 3 mph 6 mph 79% 0 in 0.00 W/m2 CLR
05:55 65.1 °F 58.8 °F 29.9 in Calm   5 mph 80% 0 in 0.00 W/m2 CLR
06:00 65.1 °F 59.2 °F 29.9 in NNW 2 mph 5 mph 81% 0 in 0.00 W/m2 CLR
06:05 64.9 °F 59 °F 29.9 in North 2 mph 7 mph 81% 0 in 0.00 W/m2 OVC
06:10 64.9 °F 59.4 °F 29.9 in North 2 mph 4 mph 82% 0 in 0.00 W/m2 OVC
06:15 64.8 °F 59.2 °F 29.9 in North 2 mph 5 mph 82% 0 in 0.00 W/m2 OVC
06:20 64 °F 57.7 °F 29.9 in NNW 2 mph 5 mph 80% 0 in 0.00 W/m2 OVC
06:25 63.1 °F 55.6 °F 29.9 in NNW 2 mph 4 mph 76% 0 in 0.00 W/m2 OVC
06:30 63 °F 54.1 °F 29.9 in NNW 2 mph 5 mph 73% 0 in 0.00 W/m2 OVC
06:35 63 °F 53.8 °F 29.9 in NNW 1 mph 5 mph 72% 0 in 6.00 W/m2 OVC
06:40 63.1 °F 53.6 °F 29.9 in NNW 2 mph 4 mph 71% 0 in 8.40 W/m2 CLR
06:45 63.3 °F 54.1 °F 29.9 in NNW 2 mph 4 mph 72% 0 in 10.80 W/m2 FEW
06:50 63.5 °F 54.3 °F 29.9 in Calm   3 mph 72% 0 in 14.40 W/m2 SCT
06:55 63.5 °F 54.3 °F 29.9 in Calm   1 mph 72% 0 in 16.80 W/m2 SCT
07:00 63.5 °F 54.3 °F 29.9 in Calm   2 mph 72% 0 in 21.60 W/m2 SCT
07:05 63.7 °F 54.3 °F 29.9 in Calm   1 mph 72% 0 in 25.20 W/m2 BKN
07:10 63.7 °F 54.5 °F 29.9 in Calm   2 mph 72% 0 in 33.60 W/m2 SCT
07:15 63.9 °F 54.7 °F 29.9 in Calm   1 mph 72% 0 in 46.80 W/m2 SCT
07:20 63.9 °F 54.7 °F 29.9 in NW 1 mph 2 mph 72% 0 in 63.60 W/m2 FEW
Juneau County Weather
Compliments of Weather Underground - 12.5 mb

past weather